Time;durP1;ratioP1;P1;durP2;ratioP2;P2;SDS_P1;SDS_P2;PMS_P1;PMS_P2;Temp;Humidity;BMP_temperature;BMP_pressure;BME280_temperature;BME280_humidity;BME280_pressure;Samples;Min_cycle;Max_cycle;Signal;HPM_P1;HPM_P2
2023/01/07 00:01:08;;;;;;;3.27;1.30;;;9.70;99.90;;;;;;5073219;28;20786;-72
2023/01/07 00:03:34;;;;;;;1.90;1.43;;;9.70;99.90;;;;;;5073030;28;20484;-72
2023/01/07 00:06:08;;;;;;;1.13;1.00;;;9.70;99.90;;;;;;5073528;28;20417;-72
2023/01/07 00:08:36;;;;;;;4.93;1.20;;;9.60;99.90;;;;;;5073366;28;20490;-72
2023/01/07 00:11:10;;;;;;;2.70;1.00;;;9.70;99.90;;;;;;5073420;28;20831;-71
2023/01/07 00:13:36;;;;;;;2.50;1.10;;;9.60;99.90;;;;;;5072982;28;20425;-72
2023/01/07 00:16:05;;;;;;;1.47;1.20;;;9.60;99.90;;;;;;5073165;28;20461;-72
2023/01/07 00:18:30;;;;;;;3.77;1.10;;;9.60;99.90;;;;;;5072016;28;20181;-72
2023/01/07 00:21:01;;;;;;;3.20;0.97;;;9.60;99.90;;;;;;5072630;28;20417;-72
2023/01/07 00:23:27;;;;;;;1.93;1.73;;;9.50;99.90;;;;;;5072785;28;20187;-72
2023/01/07 00:26:00;;;;;;;1.60;1.10;;;9.60;99.90;;;;;;5073220;28;20411;-72
2023/01/07 00:28:25;;;;;;;1.53;1.40;;;9.50;99.90;;;;;;5072642;28;20462;-72
2023/01/07 00:30:51;;;;;;;1.47;1.20;;;9.50;99.90;;;;;;5072478;28;20411;-72
2023/01/07 00:33:17;;;;;;;1.47;1.13;;;9.50;99.90;;;;;;5071677;28;20234;-72
2023/01/07 00:35:44;;;;;;;1.03;0.90;;;9.50;99.90;;;;;;5071963;28;20259;-72
2023/01/07 00:38:10;;;;;;;1.67;1.30;;;9.40;99.90;;;;;;5072663;28;20547;-72
2023/01/07 00:40:36;;;;;;;1.20;1.00;;;9.50;99.90;;;;;;5072911;28;20410;-72
2023/01/07 00:43:03;;;;;;;1.30;1.00;;;9.50;99.90;;;;;;5072342;28;20446;-72
2023/01/07 00:45:31;;;;;;;3.43;1.33;;;9.50;99.90;;;;;;5072724;28;20183;-72
2023/01/07 00:47:58;;;;;;;1.70;1.53;;;9.50;99.90;;;;;;5054803;28;20461;-72
2023/01/07 00:50:26;;;;;;;3.03;2.13;;;9.40;99.90;;;;;;5072486;28;20430;-72
2023/01/07 00:52:53;;;;;;;2.33;1.27;;;9.50;99.90;;;;;;5072186;28;20473;-72
2023/01/07 00:55:19;;;;;;;2.20;1.37;;;9.40;99.90;;;;;;5072576;28;20511;-72
2023/01/07 00:57:44;;;;;;;1.37;1.20;;;9.40;99.90;;;;;;5072126;28;20439;-72
2023/01/07 01:00:12;;;;;;;4.23;1.50;;;9.40;99.90;;;;;;5072534;28;20173;-72
2023/01/07 01:02:38;;;;;;;2.40;1.57;;;9.50;99.90;;;;;;5071948;28;20295;-72
2023/01/07 01:05:05;;;;;;;1.63;1.53;;;9.50;99.90;;;;;;5072510;28;20502;-72
2023/01/07 01:07:30;;;;;;;3.03;1.63;;;9.40;99.90;;;;;;5072342;28;20288;-72
2023/01/07 01:09:56;;;;;;;1.60;1.50;;;9.40;99.90;;;;;;5072144;28;20513;-72
2023/01/07 01:12:22;;;;;;;1.60;1.40;;;9.40;99.90;;;;;;5072041;28;20570;-73
2023/01/07 01:14:47;;;;;;;2.80;1.93;;;9.40;99.90;;;;;;5071952;28;20604;-72
2023/01/07 01:17:13;;;;;;;2.40;1.70;;;9.40;99.90;;;;;;5072418;28;20194;-72
2023/01/07 01:19:38;;;;;;;2.20;1.57;;;9.40;99.90;;;;;;5071987;28;20723;-72
2023/01/07 01:22:04;;;;;;;2.03;1.40;;;9.40;99.90;;;;;;5071949;28;20635;-72
2023/01/07 01:24:30;;;;;;;1.63;1.53;;;9.30;99.90;;;;;;5071639;28;20176;-72
2023/01/07 01:26:55;;;;;;;1.27;1.17;;;9.30;99.90;;;;;;5072391;28;20208;-72
2023/01/07 01:29:21;;;;;;;1.10;1.00;;;9.30;99.90;;;;;;5071994;28;20545;-72
2023/01/07 01:31:47;;;;;;;3.53;1.43;;;9.40;99.90;;;;;;5071303;28;20211;-72
2023/01/07 01:34:13;;;;;;;3.90;1.10;;;9.40;99.90;;;;;;5060706;28;20171;-72
2023/01/07 01:36:38;;;;;;;1.30;1.03;;;9.40;99.90;;;;;;5071586;28;20426;-72
2023/01/07 01:39:04;;;;;;;1.30;0.87;;;9.30;99.90;;;;;;5071899;28;20192;-72
2023/01/07 01:41:30;;;;;;;12.00;1.30;;;9.40;99.90;;;;;;5071242;28;20621;-72
2023/01/07 01:43:55;;;;;;;1.23;0.97;;;9.40;99.90;;;;;;5071414;28;20676;-72
2023/01/07 01:46:40;;;;;;;1.40;1.20;;;9.40;99.90;;;;;;5070726;28;20411;-72
2023/01/07 01:49:22;;;;;;;1.50;1.40;;;9.40;99.90;;;;;;5071454;28;20169;-72
2023/01/07 01:52:03;;;;;;;1.13;1.00;;;9.50;99.90;;;;;;5071961;28;20449;-72
2023/01/07 01:54:28;;;;;;;1.80;0.83;;;9.50;99.90;;;;;;5072742;28;20792;-72
2023/01/07 01:56:56;;;;;;;1.70;1.20;;;9.50;99.90;;;;;;5072134;28;20438;-72
2023/01/07 01:59:29;;;;;;;1.63;1.00;;;9.50;99.90;;;;;;5071466;28;20663;-71
2023/01/07 03:32:39;;;;;;;1.10;0.60;;;9.60;99.90;;;;;;5341987;22;20493;-73
2023/01/07 03:35:06;;;;;;;1.10;0.50;;;9.60;99.90;;;;;;5041891;28;20454;-72
2023/01/07 03:37:33;;;;;;;0.70;0.50;;;9.60;99.90;;;;;;5034426;28;20499;-72
2023/01/07 03:39:59;;;;;;;0.70;0.50;;;9.60;99.90;;;;;;5034056;28;20413;-72
2023/01/07 03:42:40;;;;;;;0.90;0.80;;;9.60;99.90;;;;;;5060139;28;20456;-73
2023/01/07 03:45:18;;;;;;;0.77;0.50;;;9.50;99.90;;;;;;5056064;28;20417;-72
2023/01/07 03:47:47;;;;;;;1.00;0.60;;;9.60;99.90;;;;;;5065709;28;20525;-72
2023/01/07 03:50:13;;;;;;;0.80;0.70;;;9.60;99.90;;;;;;5074169;28;20842;-70
2023/01/07 03:52:38;;;;;;;0.70;0.50;;;9.60;99.90;;;;;;5060855;28;20454;-72
2023/01/07 03:55:04;;;;;;;2.00;0.50;;;9.60;99.90;;;;;;5069845;28;20426;-72
2023/01/07 03:57:31;;;;;;;1.80;0.90;;;9.50;99.90;;;;;;5073779;28;20172;-73
2023/01/07 03:59:57;;;;;;;1.10;0.73;;;9.50;99.90;;;;;;5055646;28;20423;-72
2023/01/07 04:02:22;;;;;;;1.50;0.73;;;9.50;99.90;;;;;;5063191;28;20812;-72
2023/01/07 04:04:48;;;;;;;0.90;0.73;;;9.50;99.90;;;;;;5066712;28;20184;-72
2023/01/07 04:07:13;;;;;;;1.20;0.70;;;9.50;99.90;;;;;;5073311;28;20215;-72
2023/01/07 04:09:39;;;;;;;0.77;0.60;;;9.60;99.90;;;;;;5073461;28;20255;-72
2023/01/07 04:12:05;;;;;;;0.80;0.70;;;9.50;99.90;;;;;;5065258;28;20263;-72
2023/01/07 04:14:30;;;;;;;0.80;0.60;;;9.50;99.90;;;;;;5064146;28;20712;-72
2023/01/07 04:16:56;;;;;;;3.03;0.70;;;9.40;99.90;;;;;;5073392;28;20188;-72
2023/01/07 04:19:21;;;;;;;1.30;0.77;;;9.40;99.90;;;;;;5073322;28;20594;-72
2023/01/07 04:21:47;;;;;;;0.80;0.60;;;9.40;99.90;;;;;;5070628;28;20207;-72
2023/01/07 04:24:12;;;;;;;0.80;0.70;;;9.40;99.90;;;;;;5060847;28;20183;-72
2023/01/07 04:26:38;;;;;;;1.10;0.70;;;9.30;99.90;;;;;;5073011;28;20187;-72
2023/01/07 04:29:03;;;;;;;0.93;0.77;;;9.30;99.90;;;;;;5073052;28;20178;-72
2023/01/07 04:31:29;;;;;;;1.93;0.83;;;9.30;99.90;;;;;;5072970;28;20299;-72
2023/01/07 04:33:54;;;;;;;2.20;0.70;;;9.30;99.90;;;;;;5058695;28;20736;-72
2023/01/07 04:36:20;;;;;;;0.90;0.70;;;9.30;99.90;;;;;;5073203;28;20179;-72
2023/01/07 04:38:46;;;;;;;1.10;0.63;;;9.30;99.90;;;;;;5072976;28;20179;-72
2023/01/07 04:41:11;;;;;;;1.50;0.80;;;9.30;99.90;;;;;;5072728;28;20557;-71
2023/01/07 04:43:37;;;;;;;0.87;0.50;;;9.30;99.90;;;;;;5058536;28;20544;-72
2023/01/07 04:46:03;;;;;;;1.07;0.97;;;9.30;99.90;;;;;;5072994;28;20256;-72
2023/01/07 04:48:29;;;;;;;0.80;0.67;;;9.30;99.90;;;;;;5072897;28;20214;-72
2023/01/07 04:50:54;;;;;;;0.80;0.70;;;9.40;99.90;;;;;;5072559;28;20434;-72
2023/01/07 04:53:20;;;;;;;1.00;0.90;;;9.30;99.90;;;;;;5072263;28;20425;-72
2023/01/07 04:55:45;;;;;;;0.90;0.77;;;9.30;99.90;;;;;;5052579;28;20534;-72
2023/01/07 04:58:11;;;;;;;1.20;1.03;;;9.30;99.90;;;;;;5066629;28;20188;-72
2023/01/07 05:00:36;;;;;;;2.40;0.97;;;9.30;99.90;;;;;;5072743;28;20183;-72
2023/01/07 05:03:02;;;;;;;1.10;0.83;;;9.30;99.90;;;;;;5072295;28;20593;-72
2023/01/07 05:05:28;;;;;;;1.30;0.90;;;9.30;99.90;;;;;;5054938;28;20553;-72
2023/01/07 05:07:53;;;;;;;1.07;0.97;;;9.30;99.90;;;;;;5071237;28;20208;-72
2023/01/07 05:10:19;;;;;;;1.00;0.80;;;9.30;99.90;;;;;;5072338;28;20605;-72
2023/01/07 05:12:44;;;;;;;2.30;1.07;;;9.30;99.90;;;;;;5071985;28;20276;-72
2023/01/07 05:15:10;;;;;;;1.07;0.80;;;9.30;99.90;;;;;;5057616;28;20249;-72
2023/01/07 05:17:36;;;;;;;2.60;2.17;;;9.30;99.90;;;;;;5052470;28;20182;-72
2023/01/07 05:20:01;;;;;;;1.53;1.43;;;9.30;99.90;;;;;;5051325;28;20174;-71
2023/01/07 05:22:27;;;;;;;1.97;1.63;;;9.40;99.90;;;;;;5072247;28;20215;-72
2023/01/07 05:24:52;;;;;;;1.73;1.63;;;9.30;99.90;;;;;;5060011;28;20203;-72
2023/01/07 05:27:18;;;;;;;2.23;1.90;;;9.40;99.90;;;;;;5052502;28;20205;-72
2023/01/07 05:29:43;;;;;;;2.30;2.10;;;9.40;99.90;;;;;;5052779;28;20621;-72
2023/01/07 05:32:09;;;;;;;3.37;1.83;;;9.30;99.90;;;;;;5051787;28;20587;-72
2023/01/07 05:34:34;;;;;;;2.00;1.80;;;9.30;99.90;;;;;;5059999;28;20182;-73
2023/01/07 05:37:00;;;;;;;2.17;1.80;;;9.40;99.90;;;;;;5059242;28;20195;-72
2023/01/07 05:39:25;;;;;;;4.37;1.87;;;9.40;99.90;;;;;;5053931;28;20668;-72
2023/01/07 05:41:51;;;;;;;2.70;2.20;;;9.30;99.90;;;;;;5053445;28;20196;-72
2023/01/07 05:44:16;;;;;;;1.37;1.27;;;9.30;99.90;;;;;;5059377;28;20180;-72
2023/01/07 05:46:42;;;;;;;2.23;1.30;;;9.40;99.90;;;;;;5062259;28;20209;-72
2023/01/07 05:49:07;;;;;;;2.53;1.20;;;9.40;99.90;;;;;;5061229;28;20194;-72
2023/01/07 05:51:33;;;;;;;2.10;1.30;;;9.40;99.90;;;;;;5072838;28;20192;-72
2023/01/07 05:53:59;;;;;;;3.60;1.97;;;9.40;99.90;;;;;;5070525;28;20184;-73
2023/01/07 05:56:24;;;;;;;2.37;1.37;;;9.40;99.90;;;;;;5072276;28;20420;-72
2023/01/07 05:58:50;;;;;;;1.30;1.20;;;9.40;99.90;;;;;;5066935;28;20187;-72
2023/01/07 06:01:15;;;;;;;1.30;1.20;;;9.40;99.90;;;;;;5051363;28;20685;-72
2023/01/07 06:03:41;;;;;;;1.43;0.73;;;9.40;99.90;;;;;;5053100;28;20173;-72
2023/01/07 06:06:06;;;;;;;1.40;1.07;;;9.40;99.90;;;;;;5071495;28;20208;-72
2023/01/07 06:08:36;;;;;;;1.00;0.80;;;9.40;99.90;;;;;;5061138;28;20346;-72
2023/01/07 06:11:02;;;;;;;1.40;1.13;;;9.40;99.90;;;;;;5051139;28;20191;-72
2023/01/07 06:13:28;;;;;;;2.20;1.50;;;9.50;99.90;;;;;;5052905;28;20407;-72
2023/01/07 06:16:00;;;;;;;1.20;0.90;;;9.40;99.90;;;;;;5071031;28;20410;-72
2023/01/07 06:18:25;;;;;;;2.20;1.60;;;9.40;99.90;;;;;;5071648;28;20175;-72
2023/01/07 06:20:51;;;;;;;1.10;1.00;;;9.40;99.90;;;;;;5071636;28;20411;-72
2023/01/07 06:23:16;;;;;;;1.77;1.10;;;9.40;99.90;;;;;;5053451;28;20184;-72
2023/01/07 06:25:42;;;;;;;1.27;1.07;;;9.40;99.90;;;;;;5070705;28;20182;-72
2023/01/07 06:28:07;;;;;;;1.20;1.10;;;9.40;99.90;;;;;;5071596;28;20221;-72
2023/01/07 06:30:33;;;;;;;2.00;1.00;;;9.40;99.90;;;;;;5072176;28;20541;-72
2023/01/07 06:32:59;;;;;;;1.83;1.17;;;9.40;99.90;;;;;;5077782;28;20211;-72
2023/01/07 06:35:24;;;;;;;1.47;1.23;;;9.40;99.90;;;;;;5060764;28;20660;-72
2023/01/07 06:37:50;;;;;;;1.20;1.03;;;9.40;99.90;;;;;;5059606;28;20441;-72
2023/01/07 06:40:15;;;;;;;1.77;1.50;;;9.40;99.90;;;;;;5077953;28;20171;-73
2023/01/07 06:42:41;;;;;;;1.00;0.70;;;9.30;99.90;;;;;;5077659;28;20192;-72
2023/01/07 06:45:07;;;;;;;1.10;1.00;;;9.30;99.90;;;;;;5063327;28;20739;-72
2023/01/07 06:47:33;;;;;;;3.53;1.03;;;9.30;99.90;;;;;;5057697;28;20213;-73
2023/01/07 06:49:58;;;;;;;0.90;0.80;;;9.20;99.90;;;;;;5057631;28;20784;-72
2023/01/07 06:52:24;;;;;;;1.33;0.90;;;9.20;99.90;;;;;;5071167;28;20285;-72
2023/01/07 06:54:49;;;;;;;1.00;0.70;;;9.10;99.90;;;;;;5065673;28;20184;-72
2023/01/07 06:57:15;;;;;;;2.10;1.20;;;9.10;99.90;;;;;;5057682;28;20420;-72
2023/01/07 06:59:40;;;;;;;1.73;0.90;;;9.20;99.90;;;;;;5057633;28;20257;-72
2023/01/07 07:02:06;;;;;;;1.07;0.97;;;9.20;99.90;;;;;;5057581;28;20193;-72
2023/01/07 07:04:31;;;;;;;0.90;0.70;;;9.20;99.90;;;;;;5066455;28;20534;-72
2023/01/07 07:06:57;;;;;;;1.57;0.70;;;9.10;99.90;;;;;;5063022;28;20204;-71
2023/01/07 07:09:22;;;;;;;1.00;0.90;;;9.10;99.90;;;;;;5074401;28;20180;-71
2023/01/07 07:11:48;;;;;;;1.53;0.80;;;9.10;99.90;;;;;;5077420;28;20283;-71
2023/01/07 07:14:13;;;;;;;2.00;0.90;;;9.10;99.90;;;;;;5071365;28;20547;-71
2023/01/07 07:16:39;;;;;;;1.20;0.70;;;9.10;99.90;;;;;;5068308;28;20176;-68
2023/01/07 07:19:04;;;;;;;1.20;0.83;;;9.10;99.90;;;;;;5059357;28;20175;-70
2023/01/07 07:21:30;;;;;;;1.00;0.80;;;9.10;99.90;;;;;;5077549;28;20198;-70
2023/01/07 07:23:55;;;;;;;1.33;0.80;;;9.00;99.90;;;;;;5061635;28;20523;-71
2023/01/07 07:26:21;;;;;;;5.00;3.40;;;9.00;99.90;;;;;;5069370;28;20282;-71
2023/01/07 07:28:46;;;;;;;1.83;0.90;;;9.00;99.90;;;;;;5057266;28;20208;-71
2023/01/07 07:31:12;;;;;;;1.10;0.80;;;9.00;99.90;;;;;;5057268;28;20243;-70
2023/01/07 07:33:37;;;;;;;1.13;1.03;;;9.00;99.90;;;;;;5057896;28;20168;-70
2023/01/07 07:36:04;;;;;;;1.50;0.87;;;9.00;99.90;;;;;;5077300;28;20182;-70
2023/01/07 07:38:29;;;;;;;1.50;1.20;;;9.00;99.90;;;;;;5067821;28;20247;-71
2023/01/07 07:40:55;;;;;;;3.27;1.40;;;9.10;99.90;;;;;;5055616;28;20442;-70
2023/01/07 07:43:21;;;;;;;1.17;1.00;;;9.00;99.90;;;;;;5053994;28;20168;-71
2023/01/07 07:45:46;;;;;;;1.33;0.97;;;9.10;99.90;;;;;;5071875;28;20426;-71
2023/01/07 07:48:14;;;;;;;1.00;0.80;;;9.10;99.90;;;;;;5059215;28;20208;-71
2023/01/07 07:50:40;;;;;;;1.33;1.10;;;9.10;99.90;;;;;;5073110;28;20336;-70
2023/01/07 07:53:08;;;;;;;3.17;1.00;;;9.00;99.90;;;;;;5073691;28;20497;-71
2023/01/07 07:55:36;;;;;;;1.63;1.03;;;9.00;99.90;;;;;;5073573;28;20532;-70
2023/01/07 07:58:01;;;;;;;2.00;0.93;;;9.00;99.90;;;;;;5074102;28;20430;-70
2023/01/07 08:00:27;;;;;;;0.70;0.60;;;9.00;99.90;;;;;;5073859;28;20420;-70
2023/01/07 08:02:56;;;;;;;0.80;0.60;;;9.00;99.90;;;;;;5073318;28;20567;-71
2023/01/07 08:05:22;;;;;;;1.20;1.10;;;9.00;99.90;;;;;;5073484;28;20660;-71
2023/01/07 08:07:47;;;;;;;1.33;0.70;;;9.00;99.90;;;;;;5073355;28;20543;-71
2023/01/07 08:10:13;;;;;;;1.13;0.70;;;9.00;99.90;;;;;;5073677;28;20168;-71
2023/01/07 08:12:38;;;;;;;1.63;1.00;;;9.00;99.90;;;;;;5073397;28;20688;-71
2023/01/07 08:15:06;;;;;;;2.13;0.90;;;9.00;99.90;;;;;;5073412;28;20192;-71
2023/01/07 08:17:31;;;;;;;1.50;0.90;;;9.00;99.90;;;;;;5073243;28;20250;-71
2023/01/07 08:19:57;;;;;;;2.90;1.10;;;9.00;99.90;;;;;;5073222;28;20414;-71
2023/01/07 08:22:22;;;;;;;1.10;0.70;;;9.00;99.90;;;;;;5073340;28;20226;-71
2023/01/07 08:24:48;;;;;;;1.83;1.27;;;9.10;99.90;;;;;;5072983;28;20655;-71
2023/01/07 08:27:13;;;;;;;2.47;1.07;;;9.10;99.90;;;;;;5073262;28;20295;-71
2023/01/07 08:29:39;;;;;;;2.40;1.33;;;9.10;99.90;;;;;;5073417;28;20247;-71
2023/01/07 08:32:05;;;;;;;1.13;1.03;;;9.10;99.90;;;;;;5072849;28;20346;-71
2023/01/07 08:34:30;;;;;;;1.40;0.90;;;9.20;99.90;;;;;;5072961;28;20653;-72
2023/01/07 08:36:56;;;;;;;1.10;1.00;;;9.20;99.90;;;;;;5073081;28;20173;-71
2023/01/07 08:39:21;;;;;;;1.23;0.80;;;9.30;99.90;;;;;;5073262;28;20181;-71
2023/01/07 08:41:47;;;;;;;1.00;0.80;;;9.30;99.90;;;;;;5072811;28;20727;-71
2023/01/07 08:44:12;;;;;;;1.50;1.00;;;9.30;99.90;;;;;;5072830;28;20184;-71
2023/01/07 08:46:38;;;;;;;1.00;0.90;;;9.30;99.90;;;;;;5055095;28;20191;-71
2023/01/07 08:49:03;;;;;;;0.93;0.80;;;9.30;99.90;;;;;;5072952;28;20179;-71
2023/01/07 08:51:29;;;;;;;1.53;0.93;;;9.30;99.90;;;;;;5072838;28;20192;-71
2023/01/07 08:53:54;;;;;;;1.30;0.80;;;9.30;99.90;;;;;;5072342;28;20172;-71
2023/01/07 08:56:21;;;;;;;1.17;0.80;;;9.30;99.90;;;;;;5073352;28;20172;-70
2023/01/07 08:58:47;;;;;;;1.07;0.80;;;9.40;99.90;;;;;;5072250;28;20520;-69
2023/01/07 09:01:12;;;;;;;1.80;0.80;;;9.40;99.90;;;;;;5072619;28;20434;-70
2023/01/07 09:03:38;;;;;;;1.10;0.80;;;9.50;99.90;;;;;;5066300;28;20555;-70
2023/01/07 09:06:04;;;;;;;1.13;0.80;;;9.50;99.90;;;;;;5060972;28;20179;-70
2023/01/07 09:08:29;;;;;;;1.30;1.00;;;9.40;99.90;;;;;;5063353;28;20195;-71
2023/01/07 09:10:55;;;;;;;12.23;7.67;;;9.50;99.90;;;;;;5042869;28;20206;-71
2023/01/07 09:13:20;;;;;;;5.10;3.60;;;9.60;99.90;;;;;;5066950;28;20260;-71
2023/01/07 09:15:46;;;;;;;3.63;2.40;;;9.60;99.90;;;;;;5055111;28;20181;-71
2023/01/07 09:18:11;;;;;;;4.60;2.30;;;9.60;99.90;;;;;;5072741;28;20184;-71
2023/01/07 09:20:37;;;;;;;3.40;1.80;;;9.70;99.90;;;;;;5072366;28;20188;-70
2023/01/07 09:23:03;;;;;;;25.00;10.53;;;9.80;99.90;;;;;;5072707;28;20660;-71
2023/01/07 09:25:28;;;;;;;19.57;7.70;;;9.90;99.90;;;;;;5072012;28;20264;-70
2023/01/07 09:27:54;;;;;;;7.50;1.70;;;9.90;99.90;;;;;;5071705;28;20269;-70
2023/01/07 09:30:19;;;;;;;15.67;7.73;;;10.00;99.90;;;;;;5054074;28;20173;-70
2023/01/07 09:32:45;;;;;;;1.53;1.40;;;10.10;99.90;;;;;;5053755;28;20261;-70
2023/01/07 09:35:11;;;;;;;1.50;1.30;;;10.00;99.90;;;;;;5053970;28;20267;-70
2023/01/07 09:37:36;;;;;;;1.30;1.10;;;10.10;99.90;;;;;;5061208;28;20208;-70
2023/01/07 09:40:03;;;;;;;1.97;1.20;;;10.20;99.90;;;;;;5050286;28;20795;-70
2023/01/07 09:42:37;;;;;;;1.30;1.00;;;10.20;99.90;;;;;;5057774;28;20204;-70
2023/01/07 09:45:02;;;;;;;1.50;1.17;;;10.20;99.90;;;;;;5058673;28;20474;-71
2023/01/07 09:47:28;;;;;;;3.07;1.73;;;10.20;99.90;;;;;;5050991;28;20456;-70
2023/01/07 09:50:02;;;;;;;1.87;1.40;;;10.20;99.90;;;;;;5050319;28;20304;-70
2023/01/07 09:52:59;;;;;;;3.20;1.90;;;10.20;99.90;;;;;;5056732;28;20434;-70
2023/01/07 09:55:33;;;;;;;2.27;1.30;;;10.30;99.90;;;;;;5039888;28;20879;-70
2023/01/07 09:57:59;;;;;;;2.70;1.30;;;10.30;99.90;;;;;;5052141;28;21022;-70
2023/01/07 10:00:25;;;;;;;3.30;1.77;;;10.40;99.90;;;;;;5067990;28;20469;-71
2023/01/07 10:03:22;;;;;;;2.97;2.13;;;10.40;99.90;;;;;;5069829;28;20266;-72
2023/01/07 10:06:10;;;;;;;2.50;2.20;;;10.40;99.90;;;;;;5069703;28;20253;-70
2023/01/07 10:09:03;;;;;;;3.03;2.40;;;10.40;99.90;;;;;;5050410;28;20471;-70
2023/01/07 10:11:44;;;;;;;3.20;2.60;;;10.40;99.90;;;;;;5057873;28;20827;-70
2023/01/07 10:14:12;;;;;;;4.30;2.90;;;10.50;99.90;;;;;;5065648;28;20443;-71
2023/01/07 10:16:56;;;;;;;5.57;3.80;;;10.60;99.90;;;;;;5054909;28;21119;-71
2023/01/07 10:19:46;;;;;;;9.50;3.40;;;10.80;99.90;;;;;;5070525;28;20431;-70
2023/01/07 10:22:32;;;;;;;13.80;4.60;;;11.50;99.90;;;;;;5070010;28;20525;-70
2023/01/07 10:25:11;;;;;;;3.13;2.83;;;12.40;99.90;;;;;;5069623;28;20461;-71
2023/01/07 10:27:39;;;;;;;5.97;3.30;;;12.90;99.90;;;;;;5059755;28;20976;-70
2023/01/07 10:30:12;;;;;;;3.30;2.37;;;13.00;99.90;;;;;;5050780;28;20791;-71
2023/01/07 10:32:37;;;;;;;3.50;2.70;;;13.00;99.90;;;;;;5051020;28;20443;-71
2023/01/07 10:35:11;;;;;;;2.80;2.60;;;12.90;99.90;;;;;;5050911;28;20767;-70
2023/01/07 10:37:39;;;;;;;3.83;2.63;;;12.40;99.90;;;;;;5063044;28;20181;-71
2023/01/07 10:40:07;;;;;;;3.13;2.80;;;12.10;99.90;;;;;;5058899;28;20428;-71
2023/01/07 10:42:49;;;;;;;2.60;2.33;;;11.80;99.90;;;;;;5053868;28;20809;-71
2023/01/07 10:45:20;;;;;;;3.73;2.50;;;11.50;99.90;;;;;;5053462;28;20434;-71
2023/01/07 10:48:13;;;;;;;2.70;2.23;;;11.40;99.90;;;;;;5064274;28;20466;-70
2023/01/07 10:50:53;;;;;;;2.70;2.43;;;11.30;99.90;;;;;;5068714;28;20411;-70
2023/01/07 10:53:30;;;;;;;2.20;2.00;;;11.40;99.90;;;;;;5053620;28;20426;-71
2023/01/07 10:56:23;;;;;;;2.83;2.63;;;11.90;99.90;;;;;;5071093;28;20915;-71
2023/01/07 10:58:49;;;;;;;3.63;2.67;;;12.50;99.90;;;;;;5050909;28;20557;-71
2023/01/07 11:01:22;;;;;;;4.77;2.60;;;12.90;99.90;;;;;;5050690;28;20887;-70
2023/01/07 11:03:53;;;;;;;3.40;2.40;;;12.60;99.90;;;;;;5050820;28;20240;-71
2023/01/07 11:06:37;;;;;;;3.50;2.20;;;12.60;99.90;;;;;;5065815;28;20472;-71
2023/01/07 11:09:07;;;;;;;3.43;2.60;;;12.90;99.90;;;;;;5056976;28;20430;-71
2023/01/07 11:11:34;;;;;;;4.97;3.40;;;13.10;99.90;;;;;;5071136;28;20415;-71
2023/01/07 11:14:05;;;;;;;2.73;2.53;;;13.40;99.90;;;;;;5070560;28;20415;-71
2023/01/07 11:16:42;;;;;;;2.27;2.07;;;13.50;99.90;;;;;;5068434;28;20442;-71
2023/01/07 11:19:10;;;;;;;2.53;2.33;;;13.60;99.90;;;;;;5053092;28;20836;-71
2023/01/07 11:21:42;;;;;;;4.37;2.40;;;13.50;99.90;;;;;;5059325;28;20428;-71
2023/01/07 11:24:26;;;;;;;1.97;1.73;;;13.70;99.90;;;;;;5074163;28;20431;-71
2023/01/07 11:26:58;;;;;;;2.33;2.13;;;13.70;99.90;;;;;;5069628;28;20419;-71
2023/01/07 11:29:26;;;;;;;3.53;2.77;;;13.50;99.90;;;;;;5054350;28;20509;-71
2023/01/07 11:31:57;;;;;;;6.50;3.10;;;13.50;99.90;;;;;;5053623;28;20455;-71
2023/01/07 11:34:36;;;;;;;3.63;2.80;;;13.40;99.90;;;;;;5054242;28;20908;-71
2023/01/07 11:37:02;;;;;;;3.13;2.10;;;13.60;99.90;;;;;;5061540;28;20462;-71
2023/01/07 11:39:31;;;;;;;2.43;2.00;;;13.70;99.90;;;;;;5054241;28;20416;-70
2023/01/07 11:45:17;;;;;;;6.47;3.00;;;13.80;99.90;;;;;;5053997;28;20505;-71
2023/01/07 11:47:57;;;;;;;2.80;2.00;;;13.50;99.90;;;;;;5061418;28;20470;-71
2023/01/07 11:50:43;;;;;;;4.63;2.73;;;13.40;99.90;;;;;;5066378;28;20787;-72
2023/01/07 11:53:14;;;;;;;6.97;3.20;;;13.40;99.90;;;;;;5061693;28;20857;-71
2023/01/07 11:56:05;;;;;;;21.10;3.23;;;13.30;99.90;;;;;;5063043;28;20407;-71
2023/01/07 11:58:37;;;;;;;8.63;2.50;;;13.20;99.90;;;;;;5069296;28;20841;-71
2023/01/07 12:01:09;;;;;;;6.17;2.60;;;13.40;99.90;;;;;;5069394;28;20810;-70
2023/01/07 12:03:36;;;;;;;3.50;2.80;;;13.60;99.90;;;;;;5067686;28;20423;-71
2023/01/07 12:06:10;;;;;;;3.10;2.70;;;13.30;99.90;;;;;;5070091;28;20442;-71
2023/01/07 12:08:39;;;;;;;4.60;2.53;;;13.50;99.90;;;;;;5056466;28;20464;-71
2023/01/07 12:11:13;;;;;;;2.30;2.07;;;13.40;99.90;;;;;;5066445;28;20474;-69
2023/01/07 12:13:41;;;;;;;5.10;2.73;;;13.20;99.90;;;;;;5065328;28;20415;-71
2023/01/07 12:16:08;;;;;;;4.07;2.43;;;13.00;99.90;;;;;;5062317;28;20416;-72
2023/01/07 12:18:40;;;;;;;2.90;2.37;;;13.20;99.90;;;;;;5046495;28;20835;-73
2023/01/07 12:21:37;;;;;;;5.00;2.90;;;13.30;99.90;;;;;;5057191;28;20455;-70
2023/01/07 12:24:20;;;;;;;2.93;2.63;;;13.10;99.90;;;;;;5066360;28;20782;-70
2023/01/07 12:26:56;;;;;;;3.93;2.57;;;12.90;99.90;;;;;;5064998;28;20505;-70
2023/01/07 12:29:38;;;;;;;3.30;2.67;;;12.80;99.90;;;;;;5063708;28;20420;-70
2023/01/07 12:32:29;;;;;;;2.80;2.13;;;12.80;99.90;;;;;;5055024;28;20888;-71
2023/01/07 12:35:01;;;;;;;2.60;2.40;;;12.70;99.90;;;;;;5059919;28;20425;-71
2023/01/07 12:37:41;;;;;;;4.50;3.03;;;12.80;99.90;;;;;;5061899;28;20435;-71
2023/01/07 12:40:12;;;;;;;4.50;3.27;;;12.60;99.90;;;;;;5057810;28;20424;-70
2023/01/07 12:42:42;;;;;;;3.40;2.77;;;12.50;99.90;;;;;;5063435;28;20888;-70
2023/01/07 12:45:24;;;;;;;2.93;2.70;;;12.40;99.90;;;;;;5063055;28;20480;-71
2023/01/07 12:47:58;;;;;;;4.53;3.00;;;12.40;99.90;;;;;;5057132;28;20471;-70
2023/01/07 12:50:25;;;;;;;3.60;3.10;;;12.20;99.90;;;;;;5059758;28;20428;-71
2023/01/07 12:53:10;;;;;;;4.00;2.37;;;12.30;99.90;;;;;;5053110;28;20420;-70
2023/01/07 12:55:39;;;;;;;3.30;2.60;;;12.40;99.90;;;;;;5064950;28;20430;-71
2023/01/07 12:58:36;;;;;;;21.20;17.40;;;12.40;99.90;;;;;;5060741;28;20485;-71
2023/01/07 13:01:15;;;;;;;6.73;3.37;;;12.30;99.90;;;;;;5053948;28;20517;-70
2023/01/07 13:03:59;;;;;;;3.17;2.73;;;12.20;99.90;;;;;;5074355;28;20426;-71
2023/01/07 13:06:49;;;;;;;4.40;3.70;;;12.20;99.90;;;;;;5073500;28;20415;-72
2023/01/07 13:09:24;;;;;;;3.60;3.07;;;12.10;99.90;;;;;;5035813;28;20431;-72
2023/01/07 13:14:51;;;;;;;3.77;2.83;;;11.90;99.90;;;;;;5072415;28;20827;-72
2023/01/07 13:17:25;;;;;;;4.03;2.97;;;12.00;99.90;;;;;;5061131;28;21008;-72
2023/01/07 13:19:51;;;;;;;2.23;2.03;;;12.00;99.90;;;;;;5068840;28;20422;-72
2023/01/07 13:22:30;;;;;;;2.93;2.63;;;12.00;99.90;;;;;;5072115;28;20415;-72
2023/01/07 13:25:12;;;;;;;3.73;2.63;;;12.00;99.90;;;;;;5072161;28;20172;-72
2023/01/07 13:27:46;;;;;;;3.03;2.63;;;12.00;99.90;;;;;;5064822;28;20463;-72
2023/01/07 13:30:17;;;;;;;3.03;2.67;;;11.90;99.90;;;;;;5051954;28;20415;-72
2023/01/07 13:33:32;;;;;;;3.43;2.57;;;11.90;99.90;;;;;;5051788;28;20526;-72
2023/01/07 13:36:37;;;;;;;5.87;2.80;;;11.90;99.90;;;;;;5017914;28;20489;-72
2023/01/07 13:39:24;;;;;;;4.63;3.50;;;11.80;99.90;;;;;;5053534;28;20422;-72
2023/01/07 13:42:31;;;;;;;6.97;3.00;;;11.80;99.90;;;;;;5070618;28;20429;-72
2023/01/07 13:45:08;;;;;;;5.00;3.13;;;11.80;99.90;;;;;;5071325;28;20433;-72
2023/01/07 13:47:49;;;;;;;4.60;2.60;;;11.70;99.90;;;;;;5071529;28;20462;-72
2023/01/07 13:50:43;;;;;;;4.13;2.83;;;11.80;99.90;;;;;;5071691;28;20401;-72
2023/01/07 13:53:15;;;;;;;7.20;2.93;;;11.70;99.90;;;;;;5071089;28;20423;-72
2023/01/07 13:55:43;;;;;;;2.90;2.60;;;11.70;99.90;;;;;;5071646;28;20490;-71
2023/01/07 13:58:43;;;;;;;3.47;2.53;;;11.70;99.90;;;;;;5071559;28;20830;-71
2023/01/07 14:01:20;;;;;;;4.33;2.80;;;11.70;99.90;;;;;;5071401;28;20435;-70
2023/01/07 14:03:49;;;;;;;3.63;2.90;;;11.70;99.90;;;;;;5070946;28;20962;-71
2023/01/07 14:06:20;;;;;;;4.00;2.50;;;11.70;99.90;;;;;;5071526;28;20415;-71
2023/01/07 14:09:05;;;;;;;3.83;3.00;;;11.70;99.90;;;;;;5053331;28;20519;-71
2023/01/07 14:11:42;;;;;;;5.37;2.80;;;11.60;99.90;;;;;;5052659;28;20453;-70
2023/01/07 14:15:07;;;;;;;4.50;2.83;;;11.60;99.90;;;;;;5071034;28;20476;-71
2023/01/07 14:17:35;;;;;;;3.73;2.83;;;11.60;99.90;;;;;;4970190;28;20435;-71
2023/01/07 14:20:24;;;;;;;7.33;3.30;;;11.50;99.90;;;;;;5051567;28;20416;-70
2023/01/07 14:23:18;;;;;;;27.13;24.93;;;11.50;99.90;;;;;;5070730;28;20451;-71
2023/01/07 14:25:47;;;;;;;4.03;3.00;;;11.50;99.90;;;;;;5058279;28;20415;-71
2023/01/07 14:28:48;;;;;;;4.20;3.00;;;11.40;99.90;;;;;;5071283;28;20546;-71
2023/01/07 14:31:22;;;;;;;5.20;2.70;;;11.30;99.90;;;;;;4989077;28;20490;-70
2023/01/07 14:33:52;;;;;;;5.63;3.33;;;11.30;99.90;;;;;;5058301;28;20783;-71
2023/01/07 14:36:17;;;;;;;4.50;3.03;;;11.20;99.90;;;;;;5069560;28;20418;-71
2023/01/07 14:38:43;;;;;;;3.90;3.00;;;11.20;99.90;;;;;;5059001;28;20952;-71
2023/01/07 14:41:14;;;;;;;3.77;2.87;;;11.20;99.90;;;;;;5057346;28;20207;-71
2023/01/07 14:43:44;;;;;;;5.70;3.27;;;11.20;99.90;;;;;;5062703;28;20216;-71
2023/01/07 14:46:22;;;;;;;5.20;2.70;;;11.20;99.90;;;;;;5069289;28;20604;-72